Terminal Aerodrome Forecast
Issued by NWS New Orleans/Baton Rouge, LA

Home | Current Version | Previous Version | Text Only | Print | Product List | Glossary On
Versions: 1 2 3 4 5 6 7 8 9 10 11 12 13 14 15
000
FTUS44 KLIX 301700 CCA
TAFBTR
TAF COR
KBTR 301759Z 3018/0118 12003KT P6SM BKN040
     FM010000 13005KT P6SM SCT040
     FM010900 00000KT 6SM BR BKN008
     FM011200 08002KT 4SM BR OVC007
     FM011500 12004KT P6SM SCT007 SCT030=

USA.gov is the U.S. government's official web portal to all federal, state and local government web resources and services.